Time;durP1;ratioP1;P1;durP2;ratioP2;P2;SDS_P1;SDS_P2;PMS_P1;PMS_P2;Temp;Humidity;BMP_temperature;BMP_pressure;BME280_temperature;BME280_humidity;BME280_pressure;Samples;Min_cycle;Max_cycle;Signal;HPM_P1;HPM_P2
2022/10/06 00:00:37;;;;;;;3.63;2.95;;;;;;;13.13;100.00;100927.41;5032019;28;20628;-83
2022/10/06 00:03:04;;;;;;;4.40;2.90;;;;;;;13.04;100.00;100937.38;5018996;28;20648;-83
2022/10/06 00:05:32;;;;;;;6.15;3.40;;;;;;;13.11;100.00;100937.16;5023109;28;20114;-83
2022/10/06 00:07:59;;;;;;;4.78;2.85;;;;;;;13.10;100.00;100942.50;4996238;28;20080;-83
2022/10/06 00:10:26;;;;;;;4.47;3.20;;;;;;;13.29;100.00;100935.84;5003221;28;20115;-84
2022/10/06 00:12:53;;;;;;;5.25;3.40;;;;;;;13.17;100.00;100938.78;5060860;23;20051;-77
2022/10/06 00:15:23;;;;;;;4.40;3.15;;;;;;;13.18;100.00;100944.03;4950579;28;20031;-78
2022/10/06 00:17:50;;;;;;;4.85;3.25;;;;;;;13.07;100.00;100935.50;4961283;28;20035;-76
2022/10/06 00:20:17;;;;;;;5.18;3.35;;;;;;;13.19;100.00;100948.47;4949496;28;20055;-78
2022/10/06 00:22:46;;;;;;;4.88;3.45;;;;;;;13.17;100.00;100942.31;4934321;29;20624;-77
2022/10/06 00:25:18;;;;;;;5.38;3.60;;;;;;;13.09;100.00;100944.28;4934180;29;20039;-77
2022/10/06 00:27:46;;;;;;;3.85;3.28;;;;;;;13.14;100.00;100949.50;4946909;28;20043;-78
2022/10/06 00:30:16;;;;;;;5.20;3.30;;;;;;;13.13;100.00;100948.63;4946210;28;20035;-79
2022/10/06 00:32:50;;;;;;;5.10;3.38;;;;;;;13.16;100.00;100950.31;4964556;28;20051;-77
2022/10/06 00:35:17;;;;;;;3.55;3.10;;;;;;;13.23;100.00;100954.59;4947999;28;20043;-78
2022/10/06 00:37:44;;;;;;;5.95;3.80;;;;;;;13.08;100.00;100952.31;4930798;29;20050;-77
2022/10/06 00:40:11;;;;;;;4.80;3.97;;;;;;;12.99;100.00;100963.16;4947081;28;20519;-79
2022/10/06 00:42:58;;;;;;;3.65;2.90;;;;;;;13.06;100.00;100956.78;4932992;28;20074;-79
2022/10/06 00:45:27;;;;;;;3.55;3.08;;;;;;;13.05;100.00;100960.34;4962038;28;20461;-76
2022/10/06 00:47:57;;;;;;;4.38;3.30;;;;;;;13.07;100.00;100958.53;4932686;29;20039;-79
2022/10/06 00:50:24;;;;;;;5.45;3.83;;;;;;;13.12;100.00;100952.19;4933418;28;20047;-77
2022/10/06 00:52:51;;;;;;;4.47;3.22;;;;;;;13.16;100.00;100952.97;4929567;29;20090;-76
2022/10/06 00:55:19;;;;;;;4.80;3.38;;;;;;;13.05;100.00;100957.69;4961980;28;20047;-78
2022/10/06 00:57:47;;;;;;;3.40;3.08;;;;;;;13.04;100.00;100958.59;4931226;29;20111;-77
2022/10/06 01:00:14;;;;;;;4.57;2.97;;;;;;;13.00;100.00;100967.53;4931227;29;20171;-79
2022/10/06 01:02:48;;;;;;;4.13;3.72;;;;;;;12.93;100.00;100967.69;4964688;28;20062;-78
2022/10/06 01:05:31;;;;;;;;;;;;;;;12.85;100.00;100966.13;4946189;28;20039;-77
2022/10/06 01:07:58;;;;;;;6.53;3.90;;;;;;;12.82;100.00;100964.44;4948875;28;19922;-79
2022/10/06 01:10:25;;;;;;;4.45;3.45;;;;;;;12.86;100.00;100976.72;4949295;28;20043;-77
2022/10/06 01:12:51;;;;;;;4.13;3.08;;;;;;;12.86;100.00;100966.13;4947379;28;20417;-77
2022/10/06 01:15:20;;;;;;;5.13;3.95;;;;;;;12.89;100.00;100967.81;4930676;28;20047;-79
2022/10/06 01:17:57;;;;;;;4.13;3.40;;;;;;;12.92;100.00;100971.25;4930248;28;20092;-79
2022/10/06 01:20:24;;;;;;;5.40;3.88;;;;;;;12.92;100.00;100965.94;4960926;28;20098;-77
2022/10/06 01:22:56;;;;;;;4.70;3.80;;;;;;;12.97;100.00;100973.81;4960845;28;20059;-77
2022/10/06 01:25:23;;;;;;;5.15;3.40;;;;;;;12.93;100.00;100965.03;4963571;28;20035;-79
2022/10/06 01:27:54;;;;;;;5.25;3.80;;;;;;;12.90;100.00;100964.25;4929865;29;20067;-79
2022/10/06 01:30:30;;;;;;;4.75;3.53;;;;;;;12.91;100.00;100964.22;4947995;28;20079;-79
2022/10/06 01:32:57;;;;;;;5.55;3.40;;;;;;;12.90;100.00;100969.56;4930439;29;20079;-78
2022/10/06 01:35:24;;;;;;;5.05;3.97;;;;;;;12.84;100.00;100977.66;4948450;28;20094;-78
2022/10/06 01:37:51;;;;;;;4.75;3.35;;;;;;;12.90;100.00;100977.50;4946138;28;20120;-77
2022/10/06 01:40:18;;;;;;;5.50;3.88;;;;;;;12.93;100.00;100982.72;4960099;28;20694;-78
2022/10/06 01:42:44;;;;;;;4.60;3.40;;;;;;;12.98;100.00;100982.63;4948287;28;20046;-79
2022/10/06 01:45:11;;;;;;;7.45;4.22;;;;;;;13.08;100.00;100989.44;4952901;28;20102;-79
2022/10/06 01:47:38;;;;;;;5.45;4.10;;;;;;;13.06;100.00;100993.91;4938158;28;20074;-79
2022/10/06 01:50:06;;;;;;;4.82;3.53;;;;;;;13.04;100.00;100987.78;4956811;28;20032;-78
2022/10/06 01:52:34;;;;;;;6.15;3.92;;;;;;;13.14;100.00;100994.59;4976630;28;20047;-79
2022/10/06 01:55:01;;;;;;;5.50;3.95;;;;;;;13.07;100.00;100993.88;4968223;28;20501;-80
2022/10/06 01:57:28;;;;;;;5.53;3.83;;;;;;;13.12;100.00;100994.63;4978488;28;20109;-79
2022/10/06 01:59:54;;;;;;;5.25;4.30;;;;;;;13.23;100.00;100992.59;4977892;28;20035;-79
2022/10/06 02:02:21;;;;;;;6.40;4.30;;;;;;;13.22;100.00;100995.31;4939002;28;20496;-79
2022/10/06 02:04:48;;;;;;;4.13;3.25;;;;;;;13.27;100.00;100988.06;4936518;29;20094;-79
2022/10/06 02:07:15;;;;;;;5.53;3.50;;;;;;;13.29;100.00;100994.25;4955460;28;20075;-79
2022/10/06 02:09:41;;;;;;;4.35;3.60;;;;;;;13.33;100.00;100993.22;4960557;28;20408;-79
2022/10/06 02:12:08;;;;;;;5.20;4.05;;;;;;;13.36;100.00;100992.25;4970608;28;20119;-79
2022/10/06 02:14:34;;;;;;;5.68;3.80;;;;;;;13.34;100.00;100994.09;4959518;28;20778;-79
2022/10/06 02:17:01;;;;;;;5.78;4.25;;;;;;;13.35;100.00;100999.34;4957177;28;20464;-80
2022/10/06 02:19:28;;;;;;;4.57;3.92;;;;;;;13.39;100.00;101009.00;4945005;29;20082;-79
2022/10/06 02:21:54;;;;;;;5.47;3.50;;;;;;;13.48;100.00;101005.22;4955747;29;20047;-78
2022/10/06 02:24:21;;;;;;;4.50;3.67;;;;;;;13.58;100.00;101003.19;4943451;29;20051;-78
2022/10/06 02:26:47;;;;;;;3.70;3.35;;;;;;;13.49;100.00;101010.47;4956589;28;20110;-78
2022/10/06 02:29:14;;;;;;;5.22;3.60;;;;;;;13.67;100.00;101008.25;4964110;28;20040;-79
2022/10/06 02:31:41;;;;;;;5.07;3.45;;;;;;;13.61;100.00;101003.97;4948336;28;20519;-79
2022/10/06 02:34:08;;;;;;;5.55;4.38;;;;;;;13.69;100.00;101003.75;4981767;28;20076;-79
2022/10/06 02:36:35;;;;;;;5.47;3.75;;;;;;;13.61;100.00;101005.75;4944021;28;20187;-80
2022/10/06 02:39:02;;;;;;;5.43;3.60;;;;;;;13.68;100.00;101013.50;4955152;28;20039;-80
2022/10/06 02:41:29;;;;;;;4.85;3.40;;;;;;;13.59;100.00;101020.84;4966771;28;20042;-80
2022/10/06 02:43:56;;;;;;;3.92;3.38;;;;;;;13.64;100.00;101029.56;4954306;28;20042;-79
2022/10/06 02:46:23;;;;;;;3.97;3.53;;;;;;;13.70;100.00;101024.06;4958651;28;20055;-79
2022/10/06 02:48:52;;;;;;;6.75;4.03;;;;;;;13.80;100.00;101029.13;4971674;28;20068;-79
2022/10/06 02:51:20;;;;;;;4.47;3.30;;;;;;;13.82;100.00;101028.19;4932326;29;20091;-79
2022/10/06 02:53:48;;;;;;;5.60;3.42;;;;;;;13.86;100.00;101036.00;4936680;29;20748;-79
2022/10/06 02:56:22;;;;;;;3.30;3.00;;;;;;;14.02;100.00;101028.50;4966179;28;20051;-79
2022/10/06 02:58:50;;;;;;;4.72;3.67;;;;;;;14.00;100.00;101033.84;4967260;28;20067;-79
2022/10/06 03:01:20;;;;;;;3.90;3.50;;;;;;;14.14;100.00;101045.88;4950714;28;20051;-78
2022/10/06 03:03:47;;;;;;;4.80;4.05;;;;;;;14.16;100.00;101049.34;4971697;28;20411;-78
2022/10/06 03:06:21;;;;;;;4.20;3.47;;;;;;;14.11;100.00;101053.91;4946494;29;20048;-76
2022/10/06 03:09:04;;;;;;;5.93;3.63;;;;;;;14.25;100.00;101055.28;4976980;28;20568;-78
2022/10/06 03:11:35;;;;;;;4.95;3.05;;;;;;;14.37;100.00;101054.88;4975668;28;20154;-79
2022/10/06 03:14:02;;;;;;;3.85;3.30;;;;;;;14.30;100.00;101071.09;4971962;28;20046;-79
2022/10/06 03:16:40;;;;;;;4.55;3.20;;;;;;;14.47;100.00;101071.50;4951975;28;20052;-79
2022/10/06 03:19:08;;;;;;;4.05;3.22;;;;;;;14.44;100.00;101078.63;4935399;29;20066;-78
2022/10/06 03:21:38;;;;;;;4.60;3.63;;;;;;;14.59;100.00;101095.03;4975019;28;20038;-79
2022/10/06 03:24:04;;;;;;;4.75;3.15;;;;;;;14.54;100.00;101109.38;4969540;28;20350;-78
2022/10/06 03:26:33;;;;;;;6.80;3.42;;;;;;;14.63;100.00;101125.09;4958137;28;20066;-78
2022/10/06 03:29:00;;;;;;;5.70;3.80;;;;;;;14.61;100.00;101130.44;4942202;29;20094;-78
2022/10/06 03:31:27;;;;;;;6.30;4.35;;;;;;;14.60;100.00;101115.41;4932196;29;20106;-78
2022/10/06 03:33:55;;;;;;;5.13;3.70;;;;;;;14.55;100.00;101141.28;4950415;28;20537;-78
2022/10/06 03:36:24;;;;;;;5.43;4.30;;;;;;;14.53;100.00;101134.22;4963225;28;20520;-78
2022/10/06 03:38:51;;;;;;;4.43;3.55;;;;;;;14.43;100.00;101138.91;4958787;28;20044;-79
2022/10/06 03:41:28;;;;;;;4.40;3.28;;;;;;;14.42;100.00;101144.28;4967910;28;20091;-79
2022/10/06 03:43:56;;;;;;;5.18;3.30;;;;;;;14.38;100.00;101138.19;4940637;29;20039;-79
2022/10/06 03:46:25;;;;;;;5.25;3.47;;;;;;;14.37;100.00;101141.75;4958888;28;20121;-79
2022/10/06 03:48:53;;;;;;;4.70;3.35;;;;;;;14.37;100.00;101142.59;4940720;29;20066;-79
2022/10/06 03:51:26;;;;;;;5.93;3.58;;;;;;;14.37;100.00;101153.25;4944483;28;20058;-78
2022/10/06 03:53:52;;;;;;;4.32;3.47;;;;;;;14.30;100.00;101172.09;4942031;29;20035;-78
2022/10/06 03:56:27;;;;;;;6.50;3.70;;;;;;;14.27;100.00;101194.28;4942300;28;20055;-78
2022/10/06 03:59:05;;;;;;;4.75;3.50;;;;;;;14.27;100.00;101191.63;4942556;28;20035;-79
2022/10/06 04:01:41;;;;;;;3.75;3.33;;;;;;;14.26;100.00;101203.19;4940283;28;20090;-79
2022/10/06 04:04:09;;;;;;;3.35;2.90;;;;;;;14.28;100.00;101206.66;4943675;28;20043;-78
2022/10/06 04:06:39;;;;;;;4.35;3.08;;;;;;;14.29;100.00;101202.22;4957782;28;20043;-78
2022/10/06 04:09:10;;;;;;;4.13;2.90;;;;;;;14.29;100.00;101211.09;4969614;28;20063;-79
2022/10/06 04:11:42;;;;;;;3.42;2.80;;;;;;;14.34;100.00;101214.47;4973718;28;20130;-79
2022/10/06 04:14:11;;;;;;;4.47;2.30;;;;;;;14.34;100.00;101217.13;4958970;28;20075;-78
2022/10/06 04:16:44;;;;;;;3.53;2.47;;;;;;;14.31;100.00;101224.34;4954287;28;20038;-78
2022/10/06 04:19:12;;;;;;;3.03;2.40;;;;;;;14.36;100.00;101228.59;4941440;28;20575;-78
2022/10/06 04:21:40;;;;;;;4.60;2.10;;;;;;;14.37;100.00;101225.00;4939276;28;20047;-79
2022/10/06 04:24:09;;;;;;;3.45;2.00;;;;;;;14.43;100.00;101228.44;4937465;29;20051;-78
2022/10/06 04:26:38;;;;;;;2.90;1.70;;;;;;;14.41;100.00;101232.94;4919393;28;20056;-78
2022/10/06 04:29:05;;;;;;;1.92;1.58;;;;;;;14.40;100.00;101237.38;4967366;28;20515;-77
2022/10/06 04:31:35;;;;;;;2.92;1.95;;;;;;;14.44;100.00;101249.66;4951315;28;20382;-77
2022/10/06 04:34:02;;;;;;;1.45;1.35;;;;;;;14.40;100.00;101244.47;4935592;29;20047;-77
2022/10/06 04:36:34;;;;;;;1.40;1.13;;;;;;;14.46;100.00;101255.84;4935038;28;20106;-78
2022/10/06 04:39:03;;;;;;;2.80;1.25;;;;;;;14.51;100.00;101267.22;4961461;28;20124;-79
2022/10/06 04:41:32;;;;;;;0.70;0.70;;;;;;;14.62;97.34;101267.78;4939566;29;20071;-79
2022/10/06 04:43:59;;;;;;;1.88;1.27;;;;;;;14.61;96.67;101267.84;4950535;28;20496;-78
2022/10/06 04:46:25;;;;;;;0.70;0.70;;;;;;;14.42;98.86;101278.06;4960109;28;20479;-77
2022/10/06 04:49:11;;;;;;;2.53;0.98;;;;;;;14.46;98.31;101277.13;4937813;29;20117;-78
2022/10/06 04:51:44;;;;;;;1.30;0.70;;;;;;;14.53;94.64;101289.31;4931597;28;20501;-78
2022/10/06 04:54:11;;;;;;;1.83;1.05;;;;;;;14.43;95.24;101286.91;4935392;29;20060;-78
2022/10/06 04:56:38;;;;;;;0.55;0.55;;;;;;;14.47;93.29;101278.00;4942506;28;20035;-78
2022/10/06 04:59:04;;;;;;;1.15;0.70;;;;;;;14.48;92.34;101293.91;4931005;28;20046;-79
2022/10/06 05:01:33;;;;;;;1.85;0.50;;;;;;;14.48;93.13;101301.88;4934650;28;20098;-78
2022/10/06 05:04:01;;;;;;;2.53;0.68;;;;;;;14.40;92.50;101309.16;4944817;28;20054;-79
2022/10/06 05:06:37;;;;;;;2.05;0.50;;;;;;;14.27;94.42;101310.34;4929979;29;20047;-78
2022/10/06 05:09:14;;;;;;;1.50;0.60;;;;;;;14.33;94.00;101316.41;4955983;28;20461;-78
2022/10/06 05:11:41;;;;;;;1.17;0.70;;;;;;;14.24;95.04;101324.63;4943629;29;20045;-79
2022/10/06 05:14:08;;;;;;;6.00;0.75;;;;;;;14.24;95.27;101334.38;4961454;28;20489;-78
2022/10/06 05:16:36;;;;;;;1.60;0.60;;;;;;;14.28;94.82;101341.34;4950458;29;20055;-78
2022/10/06 05:19:04;;;;;;;1.58;1.33;;;;;;;14.25;93.72;101344.09;4974375;28;20135;-78
2022/10/06 05:21:31;;;;;;;1.38;0.80;;;;;;;14.34;nan;101339.41;4951153;29;20039;-79
2022/10/06 05:23:59;;;;;;;0.95;0.63;;;;;;;14.23;94.03;101353.88;4950422;29;20042;-79
2022/10/06 05:26:27;;;;;;;1.73;0.70;;;;;;;14.19;94.90;101357.50;4951616;29;20508;-79
2022/10/06 05:28:54;;;;;;;0.68;0.60;;;;;;;14.16;93.84;101365.56;4951402;28;20445;-79
2022/10/06 05:31:26;;;;;;;2.05;0.93;;;;;;;14.08;95.41;101371.94;4931727;28;20048;-79
2022/10/06 05:33:54;;;;;;;2.35;0.60;;;;;;;14.14;95.84;101386.88;4934828;29;20050;-78
2022/10/06 05:36:22;;;;;;;1.02;0.70;;;;;;;14.08;95.63;101387.88;4928288;28;20047;-78
2022/10/06 05:38:49;;;;;;;1.20;0.77;;;;;;;14.09;97.24;101391.41;4950766;28;20039;-78
2022/10/06 05:41:18;;;;;;;1.58;0.60;;;;;;;14.08;97.34;101402.94;4953657;28;20047;-79
2022/10/06 05:43:45;;;;;;;2.38;0.65;;;;;;;13.98;98.61;101410.25;4940359;29;20058;-79
2022/10/06 05:46:16;;;;;;;3.13;0.90;;;;;;;14.06;98.07;101418.06;4934985;29;20050;-79
2022/10/06 05:48:47;;;;;;;1.35;0.90;;;;;;;13.95;99.34;101425.38;4939507;28;20086;-80
2022/10/06 05:51:15;;;;;;;4.03;0.80;;;;;;;13.92;99.24;101428.13;4953782;28;20036;-79
2022/10/06 05:53:42;;;;;;;1.27;0.80;;;;;;;14.01;97.56;101433.22;4951903;28;20464;-79
2022/10/06 05:56:11;;;;;;;1.42;0.85;;;;;;;13.99;97.23;101443.88;4939630;29;20107;-79
2022/10/06 05:58:39;;;;;;;1.33;0.77;;;;;;;13.89;97.40;101447.66;4937172;29;20180;-79
2022/10/06 06:01:10;;;;;;;2.17;1.13;;;;;;;13.92;97.76;101452.91;4937324;29;20044;-78
2022/10/06 06:03:38;;;;;;;3.33;0.90;;;;;;;13.97;96.87;101464.31;4923056;29;20043;-77
2022/10/06 06:06:29;;;;;;;1.85;0.70;;;;;;;13.95;98.15;101460.78;4958785;28;20045;-78
2022/10/06 06:09:01;;;;;;;1.25;0.80;;;;;;;13.90;97.68;101470.66;4952016;28;20075;-80
2022/10/06 06:11:30;;;;;;;1.73;1.02;;;;;;;13.84;98.99;101476.09;4951883;28;20055;-79
2022/10/06 06:13:58;;;;;;;1.92;1.08;;;;;;;13.84;99.28;101484.06;4966946;28;20054;-79
2022/10/06 06:16:27;;;;;;;1.73;0.98;;;;;;;13.88;100.00;101501.69;5089724;22;20042;-80
2022/10/06 06:18:54;;;;;;;2.40;0.90;;;;;;;13.84;100.00;101500.00;5005486;28;20042;-81
2022/10/06 06:21:20;;;;;;;3.50;0.90;;;;;;;13.82;100.00;101512.44;5010521;28;20053;-82
2022/10/06 06:23:47;;;;;;;1.77;1.00;;;;;;;13.84;100.00;101513.28;4975909;28;20499;-83
2022/10/06 06:26:17;;;;;;;2.65;1.10;;;;;;;13.81;99.98;101516.00;4957274;28;20518;-82
2022/10/06 06:28:45;;;;;;;2.47;1.52;;;;;;;13.82;100.00;101524.84;4957223;28;20446;-81
2022/10/06 06:31:25;;;;;;;1.50;1.30;;;;;;;13.69;100.00;101533.03;4981722;28;20045;-83
2022/10/06 06:33:55;;;;;;;1.17;1.00;;;;;;;13.75;100.00;101537.38;4974930;28;20104;-84
2022/10/06 06:36:24;;;;;;;2.85;0.93;;;;;;;13.74;100.00;101544.47;4987126;28;20640;-84
2022/10/06 06:38:55;;;;;;;2.17;1.08;;;;;;;13.61;100.00;101540.28;4976210;28;20470;-81
2022/10/06 06:41:27;;;;;;;2.08;0.98;;;;;;;13.67;100.00;101545.47;4977356;28;20046;-82
2022/10/06 06:43:54;;;;;;;8.50;1.65;;;;;;;13.66;100.00;101553.47;4992348;28;20042;-83
2022/10/06 06:46:23;;;;;;;3.03;1.00;;;;;;;13.69;100.00;101561.38;4983749;28;20056;-82
2022/10/06 06:48:52;;;;;;;1.38;0.85;;;;;;;13.65;100.00;101555.25;4977201;28;20057;-83
2022/10/06 06:51:22;;;;;;;2.13;1.30;;;;;;;13.71;100.00;101556.94;4977430;28;20092;-84
2022/10/06 06:53:50;;;;;;;2.90;1.10;;;;;;;13.72;100.00;101564.00;4977912;28;20152;-82
2022/10/06 06:56:17;;;;;;;1.85;0.95;;;;;;;13.76;100.00;101571.84;5012341;28;20414;-82
2022/10/06 06:58:48;;;;;;;1.75;1.27;;;;;;;13.78;100.00;101590.41;4973787;28;20046;-82
2022/10/06 07:01:17;;;;;;;2.58;1.10;;;;;;;13.80;100.00;101597.47;4979469;28;20042;-81
2022/10/06 07:03:55;;;;;;;1.38;1.02;;;;;;;13.90;100.00;101595.50;4985651;28;20041;-81
2022/10/06 07:06:27;;;;;;;3.13;1.42;;;;;;;13.89;98.33;101598.19;4988754;28;20045;-81
2022/10/06 07:08:56;;;;;;;1.73;0.93;;;;;;;13.87;100.00;101610.59;4984847;28;20045;-83
2022/10/06 07:11:25;;;;;;;3.20;1.10;;;;;;;13.96;100.00;101607.81;4965221;28;20053;-83
2022/10/06 07:14:00;;;;;;;1.63;1.10;;;;;;;14.09;99.99;101612.84;4960257;28;20046;-83
2022/10/06 07:25:05;;;;;;;2.72;1.00;;;;;;;14.27;96.25;101622.22;5000086;28;20518;-84
2022/10/06 07:27:36;;;;;;;3.95;1.15;;;;;;;14.40;96.37;101630.81;4993651;28;20454;-82
2022/10/06 07:30:04;;;;;;;2.20;1.00;;;;;;;14.46;97.08;101636.06;4991950;28;20034;-83
2022/10/06 07:32:31;;;;;;;1.67;1.10;;;;;;;14.69;93.69;101635.53;5000987;28;20033;-82
2022/10/06 07:34:57;;;;;;;2.03;1.13;;;;;;;14.74;95.01;101649.63;4973776;28;20111;-82
2022/10/06 07:37:24;;;;;;;1.73;1.00;;;;;;;14.82;90.86;101654.78;4986490;28;20517;-81
2022/10/06 07:39:51;;;;;;;4.85;1.23;;;;;;;14.88;91.08;101658.19;4972610;28;20487;-83
2022/10/06 07:42:18;;;;;;;2.38;1.17;;;;;;;14.90;92.26;101668.78;4979143;28;20088;-84
2022/10/06 07:45:36;;;;;;;2.88;1.20;;;;;;;14.89;92.31;101670.59;4994581;28;20061;-83
2022/10/06 07:47:32;;;;;;;3.90;1.42;;;;;;;14.90;92.87;101676.78;4997091;28;20041;-82
2022/10/06 07:49:59;;;;;;;2.22;1.08;;;;;;;14.88;94.04;101679.47;4977191;28;20446;-82
2022/10/06 07:52:27;;;;;;;13.18;1.55;;;;;;;14.87;95.71;101690.13;4978221;28;20049;-82
2022/10/06 07:54:54;;;;;;;3.70;1.02;;;;;;;14.84;93.64;101693.75;4974276;28;20108;-84
2022/10/06 07:57:22;;;;;;;4.00;1.10;;;;;;;14.88;93.31;101692.78;4974290;28;20474;-83
2022/10/06 07:59:49;;;;;;;3.00;1.08;;;;;;;14.96;92.79;101695.25;4988578;28;20542;-84
2022/10/06 08:02:18;;;;;;;1.92;1.00;;;;;;;14.88;92.49;101703.44;4986388;28;20556;-83
2022/10/06 08:04:45;;;;;;;2.15;1.48;;;;;;;14.98;93.22;101705.88;4976174;28;20112;-84
2022/10/06 08:07:11;;;;;;;3.17;1.50;;;;;;;14.91;92.50;101713.13;4971743;28;20054;-82
2022/10/06 08:09:38;;;;;;;6.05;1.30;;;;;;;15.05;91.79;101712.78;4956274;28;20043;-83
2022/10/06 08:12:31;;;;;;;1.88;1.48;;;;;;;15.07;90.78;101714.53;4974925;28;20050;-81
2022/10/06 08:14:51;;;;;;;4.05;1.30;;;;;;;15.04;88.91;101732.34;4994128;28;20180;-83
2022/10/06 08:17:18;;;;;;;1.85;1.30;;;;;;;14.97;86.74;101717.44;4975039;28;20042;-82
2022/10/06 08:19:46;;;;;;;3.75;1.30;;;;;;;15.03;87.64;101731.47;4994607;28;20049;-83
2022/10/06 08:22:14;;;;;;;4.22;1.10;;;;;;;15.06;88.54;101730.53;5005393;28;20065;-82
2022/10/06 08:24:41;;;;;;;3.40;1.25;;;;;;;15.15;88.05;101741.84;4978918;28;20050;-81
2022/10/06 08:27:28;;;;;;;1.35;1.05;;;;;;;15.16;84.66;101748.94;4990478;28;20065;-83
2022/10/06 08:29:55;;;;;;;2.83;1.27;;;;;;;15.13;81.46;101762.31;4978106;28;20042;-81
2022/10/06 08:32:22;;;;;;;2.47;1.13;;;;;;;15.08;83.65;101764.19;4994362;28;20050;-82
2022/10/06 08:34:50;;;;;;;3.15;1.10;;;;;;;15.03;81.81;101762.53;4994415;28;20514;-83
2022/10/06 08:37:22;;;;;;;3.60;1.35;;;;;;;15.04;84.24;101767.81;4992714;28;20046;-82
2022/10/06 08:39:50;;;;;;;4.20;1.30;;;;;;;14.98;86.36;101775.94;4995670;28;20042;-83
2022/10/06 08:42:23;;;;;;;1.90;1.20;;;;;;;15.06;87.06;101771.34;4977728;28;20060;-83
2022/10/06 08:44:56;;;;;;;4.45;1.08;;;;;;;15.23;84.54;101778.09;4994846;28;20061;-83
2022/10/06 08:47:23;;;;;;;2.07;1.50;;;;;;;15.23;85.15;101781.63;4977410;28;20069;-83
2022/10/06 08:49:52;;;;;;;4.63;1.27;;;;;;;15.38;86.43;101788.38;4993906;28;20438;-82
2022/10/06 08:52:47;;;;;;;3.10;2.00;;;;;;;15.58;82.34;101787.94;4978422;28;20050;-83
2022/10/06 08:55:49;;;;;;;5.63;1.38;;;;;;;15.68;79.76;101789.50;4974881;28;20060;-82
2022/10/06 08:58:37;;;;;;;2.40;1.27;;;;;;;15.67;77.92;101791.28;4960608;28;20503;-84
2022/10/06 09:01:23;;;;;;;2.70;1.10;;;;;;;15.69;79.23;101797.44;5009928;28;20038;-85
2022/10/06 09:03:56;;;;;;;4.38;1.48;;;;;;;15.68;77.48;101797.50;4993821;28;20049;-82
2022/10/06 09:06:44;;;;;;;2.97;1.88;;;;;;;15.67;77.91;101796.63;4977337;28;20088;-84
2022/10/06 09:09:21;;;;;;;8.85;2.47;;;;;;;15.73;76.58;101804.47;5009726;28;20104;-83
2022/10/06 09:12:06;;;;;;;3.42;1.10;;;;;;;15.88;77.23;101805.88;4977359;28;20042;-84
2022/10/06 09:14:41;;;;;;;3.28;1.50;;;;;;;15.95;76.18;101818.13;4990753;28;20057;-83
2022/10/06 09:17:11;;;;;;;3.53;1.27;;;;;;;15.94;74.36;101824.38;4993079;28;20041;-83
2022/10/06 09:19:45;;;;;;;4.82;1.77;;;;;;;16.19;73.93;101824.66;4993929;28;20038;-83
2022/10/06 09:22:20;;;;;;;5.95;1.15;;;;;;;16.24;72.98;101827.22;4984611;28;20045;-84
2022/10/06 09:24:50;;;;;;;1.80;0.95;;;;;;;16.46;72.57;101828.41;4983878;28;20046;-82
2022/10/06 09:27:17;;;;;;;4.85;1.40;;;;;;;16.49;71.02;101827.47;4995393;28;20042;-80
2022/10/06 09:29:44;;;;;;;2.65;1.25;;;;;;;16.79;71.98;101825.78;4997728;28;20064;-80
2022/10/06 09:32:11;;;;;;;1.73;0.98;;;;;;;16.68;69.29;101846.53;4981057;28;20595;-85
2022/10/06 09:34:44;;;;;;;4.60;1.48;;;;;;;17.08;68.74;101841.88;4974060;28;20068;-82
2022/10/06 09:37:12;;;;;;;4.15;1.48;;;;;;;17.33;62.80;101833.13;5004733;28;20045;-83
2022/10/06 09:39:41;;;;;;;5.60;1.33;;;;;;;17.35;64.23;101848.19;4996670;28;20410;-83
2022/10/06 09:42:16;;;;;;;5.88;1.10;;;;;;;17.43;63.63;101837.28;4989269;28;20534;-84
2022/10/06 09:44:51;;;;;;;4.57;1.30;;;;;;;17.21;63.98;101853.06;4958256;28;20050;-82
2022/10/06 09:47:34;;;;;;;5.03;1.30;;;;;;;17.12;62.77;101858.66;4957522;28;20042;-84
2022/10/06 09:50:25;;;;;;;4.05;1.30;;;;;;;16.92;62.90;101853.91;4958022;28;20057;-83
2022/10/06 09:53:02;;;;;;;4.72;1.17;;;;;;;16.63;64.64;101854.63;4966004;28;20089;-84
2022/10/06 09:55:37;;;;;;;4.22;1.20;;;;;;;16.61;64.13;101853.81;4989585;28;20045;-83
2022/10/06 09:58:28;;;;;;;3.95;1.20;;;;;;;16.80;63.25;101870.22;5009572;28;20046;-83
2022/10/06 10:00:57;;;;;;;5.32;1.30;;;;;;;17.23;64.83;101861.00;4973820;28;20419;-83
2022/10/06 10:03:26;;;;;;;3.30;1.30;;;;;;;17.64;62.46;101865.13;4958127;28;20054;-83
2022/10/06 10:05:53;;;;;;;3.60;1.10;;;;;;;17.59;60.25;101862.63;4958025;28;20054;-82
2022/10/06 10:08:21;;;;;;;3.00;1.40;;;;;;;17.71;61.38;101880.09;4963471;28;20046;-84
2022/10/06 10:10:49;;;;;;;3.47;1.38;;;;;;;17.30;58.92;101860.78;4983705;28;20066;-85
2022/10/06 10:13:17;;;;;;;5.15;1.40;;;;;;;17.48;58.79;101870.06;4995485;28;20467;-84
2022/10/06 10:15:54;;;;;;;4.43;1.55;;;;;;;17.53;58.92;101878.81;5012253;28;20053;-84
2022/10/06 10:18:25;;;;;;;4.85;1.27;;;;;;;17.45;61.60;101891.53;4980657;28;20061;-84
2022/10/06 10:20:56;;;;;;;5.07;1.55;;;;;;;17.39;60.83;101881.91;4961935;28;20038;-84
2022/10/06 10:23:28;;;;;;;9.77;1.90;;;;;;;17.52;62.00;101884.22;4959443;28;20097;-82
2022/10/06 10:26:17;;;;;;;3.28;1.13;;;;;;;17.50;57.54;101894.97;4972308;28;20081;-84
2022/10/06 10:29:29;;;;;;;4.70;1.38;;;;;;;17.49;61.82;101903.00;4998973;28;20076;-83
2022/10/06 10:32:11;;;;;;;;;;;;;;;17.65;60.35;101909.63;4996895;28;20080;-83
2022/10/06 10:34:51;;;;;;;3.00;1.42;;;;;;;17.81;59.96;101913.63;4997053;28;19971;-82
2022/10/06 10:37:36;;;;;;;8.20;1.60;;;;;;;17.95;60.75;101907.88;4985462;28;20469;-83
2022/10/06 10:40:11;;;;;;;4.03;1.40;;;;;;;17.93;58.49;101904.38;4961582;28;20542;-83
2022/10/06 10:42:51;;;;;;;5.43;1.50;;;;;;;17.69;59.26;101906.84;4961546;28;20528;-83
2022/10/06 10:45:24;;;;;;;6.95;1.65;;;;;;;17.67;59.35;101913.16;4961153;28;20072;-82
2022/10/06 10:47:51;;;;;;;3.78;2.10;;;;;;;17.62;60.39;101917.75;4961051;28;20093;-83
2022/10/06 10:50:31;;;;;;;5.15;1.40;;;;;;;17.62;61.54;101920.44;4961146;28;20093;-82
2022/10/06 10:53:08;;;;;;;5.00;1.85;;;;;;;17.88;59.87;101915.19;4961136;28;20109;-83
2022/10/06 10:55:40;;;;;;;3.05;1.13;;;;;;;17.78;60.08;101918.22;4960935;28;20038;-83
2022/10/06 10:58:15;;;;;;;3.95;1.75;;;;;;;17.78;58.44;101915.53;4977254;28;20042;-83
2022/10/06 11:00:44;;;;;;;5.45;1.73;;;;;;;17.97;60.36;101920.25;4977462;28;20088;-83
2022/10/06 11:03:11;;;;;;;4.20;1.70;;;;;;;18.07;59.25;101914.63;4961148;28;20093;-83
2022/10/06 11:05:49;;;;;;;3.90;1.40;;;;;;;17.98;58.36;101915.78;4962629;28;20101;-83
2022/10/06 11:08:36;;;;;;;3.85;1.27;;;;;;;17.70;58.09;101939.81;4996416;28;20104;-82
2022/10/06 11:11:11;;;;;;;6.05;1.70;;;;;;;17.70;59.26;101934.47;4996342;28;20041;-83
2022/10/06 11:13:44;;;;;;;8.05;1.85;;;;;;;17.57;59.25;101933.94;4990567;28;20502;-83
2022/10/06 11:16:17;;;;;;;4.57;1.85;;;;;;;17.70;58.47;101939.81;4999205;28;20096;-82
2022/10/06 11:18:47;;;;;;;3.93;1.53;;;;;;;17.70;61.21;101929.13;4999707;28;20544;-83
2022/10/06 11:21:22;;;;;;;3.53;1.25;;;;;;;17.88;60.36;101935.72;5031883;28;20438;-83
2022/10/06 11:24:23;;;;;;;7.70;1.50;;;;;;;17.95;56.69;101938.16;5015861;28;20096;-82
2022/10/06 11:27:08;;;;;;;3.85;1.30;;;;;;;18.02;59.99;101946.00;5015271;28;20056;-84
2022/10/06 11:29:50;;;;;;;5.88;1.67;;;;;;;18.19;58.08;101949.03;5015684;28;20560;-84
2022/10/06 11:32:39;;;;;;;5.10;1.38;;;;;;;18.37;57.03;101943.06;5000032;28;20073;-82
2022/10/06 11:35:16;;;;;;;3.83;1.40;;;;;;;18.25;55.16;101949.72;4980475;28;20104;-82
2022/10/06 11:37:48;;;;;;;3.40;1.33;;;;;;;18.33;56.44;101944.13;4979839;28;20561;-81
2022/10/06 11:40:26;;;;;;;7.63;1.45;;;;;;;18.24;55.59;101955.09;4981722;28;20049;-81
2022/10/06 11:42:54;;;;;;;3.58;1.40;;;;;;;17.97;56.15;101949.69;4996085;28;20101;-81
2022/10/06 11:45:47;;;;;;;4.75;1.58;;;;;;;18.06;54.52;101947.63;4995553;28;20046;-84
2022/10/06 11:48:22;;;;;;;4.15;1.25;;;;;;;18.19;55.56;101947.22;4979414;28;20070;-82